Time;durP1;ratioP1;P1;durP2;ratioP2;P2;SDS_P1;SDS_P2;PMS_P1;PMS_P2;Temp;Humidity;BMP_temperature;BMP_pressure;BME280_temperature;BME280_humidity;BME280_pressure;Samples;Min_cycle;Max_cycle;Signal;HPM_P1;HPM_P2
2022/08/23 00:02:26;;;;;;;5.72;3.50;;;;;;;15.60;nan;101082.94;4941734;29;20087;-79
2022/08/23 00:04:53;;;;;;;5.20;3.88;;;;;;;15.57;nan;101077.72;4911348;29;20580;-79
2022/08/23 00:07:35;;;;;;;5.25;4.10;;;;;;;15.55;nan;101074.22;4926343;29;20114;-80
2022/08/23 00:10:09;;;;;;;4.57;3.90;;;;;;;15.53;nan;101070.75;4944728;29;20526;-80
2022/08/23 00:12:36;;;;;;;5.70;4.18;;;;;;;15.51;nan;101073.47;4930262;29;20115;-79
2022/08/23 00:15:04;;;;;;;4.53;3.70;;;;;;;15.46;nan;101072.75;4921378;29;20131;-79
2022/08/23 00:17:31;;;;;;;5.18;4.45;;;;;;;15.45;nan;101071.00;4922033;29;20095;-79
2022/08/23 00:20:05;;;;;;;5.75;4.20;;;;;;;15.46;nan;101070.06;4913556;29;20116;-79
2022/08/23 00:22:32;;;;;;;5.22;4.72;;;;;;;15.43;nan;101060.41;4920786;29;20537;-79
2022/08/23 00:24:59;;;;;;;5.25;3.97;;;;;;;15.42;nan;101055.13;4942915;29;20110;-80
2022/08/23 00:27:27;;;;;;;6.70;4.18;;;;;;;15.39;nan;101058.78;4939847;29;20088;-80
2022/08/23 00:29:55;;;;;;;5.47;4.43;;;;;;;15.38;nan;101050.81;4941824;29;20096;-79
2022/08/23 00:32:24;;;;;;;5.05;4.07;;;;;;;15.39;nan;101045.47;4925503;29;20087;-79
2022/08/23 00:34:52;;;;;;;7.60;5.00;;;;;;;15.38;nan;101045.50;4941271;29;20114;-79
2022/08/23 00:37:19;;;;;;;5.85;3.88;;;;;;;15.36;nan;101045.56;4937751;29;20042;-80
2022/08/23 00:39:46;;;;;;;5.10;4.30;;;;;;;15.32;nan;101043.06;4921979;29;20127;-78
2022/08/23 00:48:17;;;;;;;5.72;4.20;;;;;;;15.26;nan;101038.81;4929061;29;21235;-80
2022/08/23 00:50:59;;;;;;;5.15;4.40;;;;;;;15.27;nan;101037.03;4939169;29;20127;-80
2022/08/23 00:53:33;;;;;;;4.93;4.30;;;;;;;15.27;nan;101037.88;4925020;29;20122;-79
2022/08/23 00:56:03;;;;;;;5.28;4.75;;;;;;;15.29;nan;101036.03;4936642;29;20118;-79
2022/08/23 00:58:30;;;;;;;6.80;5.18;;;;;;;15.30;nan;101034.25;4938314;29;20115;-79
2022/08/23 01:00:58;;;;;;;4.40;4.00;;;;;;;15.28;nan;101031.63;4938205;29;20107;-79
2022/08/23 01:03:28;;;;;;;5.18;4.30;;;;;;;15.26;nan;101028.16;4923064;29;20122;-79
2022/08/23 01:06:01;;;;;;;6.20;4.57;;;;;;;15.28;nan;101028.09;4936520;29;20555;-79
2022/08/23 01:08:29;;;;;;;6.18;5.57;;;;;;;15.28;nan;101023.66;4940918;29;20576;-79
2022/08/23 01:11:00;;;;;;;6.25;4.55;;;;;;;15.26;nan;101021.97;4922503;29;20458;-79
2022/08/23 01:13:34;;;;;;;5.75;5.10;;;;;;;15.23;nan;101024.75;4937727;29;20130;-79
2022/08/23 01:16:16;;;;;;;5.38;4.72;;;;;;;15.21;nan;101027.44;4922002;29;20127;-79
2022/08/23 01:18:43;;;;;;;5.18;4.63;;;;;;;15.21;nan;101030.09;4938917;29;20458;-79
2022/08/23 01:21:30;;;;;;;4.85;4.35;;;;;;;15.20;nan;101031.03;4938318;29;20119;-79
2022/08/23 01:24:00;;;;;;;5.15;4.65;;;;;;;15.20;nan;101026.56;4936871;29;20118;-79
2022/08/23 01:26:27;;;;;;;5.80;3.90;;;;;;;15.19;nan;101035.47;4937418;29;20123;-80
2022/08/23 01:28:54;;;;;;;6.55;4.53;;;;;;;15.22;nan;101039.84;4938688;29;20120;-79
2022/08/23 01:31:22;;;;;;;5.05;4.55;;;;;;;15.20;nan;101047.88;4918755;29;20063;-81
2022/08/23 01:33:59;;;;;;;5.75;4.63;;;;;;;15.20;nan;101037.22;4938300;29;20042;-79
2022/08/23 01:36:28;;;;;;;5.10;4.60;;;;;;;15.25;nan;101034.41;4920652;29;20099;-79
2022/08/23 01:38:55;;;;;;;5.25;4.75;;;;;;;15.23;nan;101044.25;4927839;29;20103;-79
2022/08/23 01:41:22;;;;;;;6.93;5.40;;;;;;;15.21;nan;101038.09;4918456;29;20043;-79
2022/08/23 01:43:50;;;;;;;5.15;4.50;;;;;;;15.21;nan;101041.63;4922089;29;20126;-80
2022/08/23 01:46:19;;;;;;;6.72;5.45;;;;;;;15.26;nan;101043.28;4917099;29;20397;-80
2022/08/23 01:48:48;;;;;;;5.68;5.10;;;;;;;15.24;nan;101042.47;4905553;29;20142;-80
2022/08/23 01:51:16;;;;;;;6.47;4.60;;;;;;;15.24;nan;101045.13;4920593;29;20573;-78
2022/08/23 01:53:45;;;;;;;5.85;4.82;;;;;;;15.21;nan;101038.94;4937416;29;20158;-80
2022/08/23 01:56:13;;;;;;;8.65;4.82;;;;;;;15.21;nan;101051.41;4919776;29;20470;-80
2022/08/23 01:58:40;;;;;;;6.85;5.05;;;;;;;15.23;nan;101051.38;4936222;29;20130;-80
2022/08/23 02:01:07;;;;;;;4.82;4.30;;;;;;;15.21;nan;101049.59;4935923;29;20045;-79
2022/08/23 02:03:36;;;;;;;5.13;4.63;;;;;;;15.20;nan;101052.31;4925459;29;20050;-80
2022/08/23 02:06:03;;;;;;;7.22;4.50;;;;;;;15.19;nan;101045.25;4939838;29;20114;-79
2022/08/23 02:11:20;;;;;;;5.63;5.07;;;;;;;15.24;nan;101048.66;4940448;29;20036;-80
2022/08/23 02:13:50;;;;;;;5.60;4.93;;;;;;;15.23;nan;101051.38;4941195;29;20048;-79
2022/08/23 02:16:29;;;;;;;7.35;5.15;;;;;;;15.25;nan;101042.41;4939695;29;20050;-79
2022/08/23 02:18:56;;;;;;;8.07;5.63;;;;;;;15.25;nan;101036.22;4939614;29;20048;-80
2022/08/23 02:21:23;;;;;;;6.10;5.22;;;;;;;15.23;nan;101038.94;4940017;29;20039;-78
2022/08/23 02:23:50;;;;;;;6.13;5.35;;;;;;;15.24;nan;101034.47;4945936;29;20127;-79
2022/08/23 02:26:18;;;;;;;6.93;5.43;;;;;;;15.24;nan;101042.47;4939976;29;20050;-79
2022/08/23 02:28:45;;;;;;;7.15;5.22;;;;;;;15.22;nan;101037.19;4923677;29;20087;-80
2022/08/23 02:31:13;;;;;;;7.47;5.45;;;;;;;15.23;nan;101032.75;4941110;29;20040;-79
2022/08/23 02:33:40;;;;;;;7.30;5.22;;;;;;;15.21;nan;101035.44;4940770;29;20122;-79
2022/08/23 02:36:24;;;;;;;7.43;5.40;;;;;;;15.19;nan;101035.47;4943471;29;20118;-81
2022/08/23 02:38:52;;;;;;;8.10;5.57;;;;;;;15.20;nan;101041.69;4950960;29;20070;-80
2022/08/23 02:41:19;;;;;;;8.13;5.70;;;;;;;15.21;nan;101038.94;4951334;29;20059;-80
2022/08/23 02:43:50;;;;;;;6.68;5.80;;;;;;;15.21;nan;101028.31;4938882;29;20059;-79
2022/08/23 02:46:18;;;;;;;9.85;6.05;;;;;;;15.21;nan;101030.09;4949822;29;20091;-80
2022/08/23 02:48:45;;;;;;;6.65;5.47;;;;;;;15.20;nan;101031.91;4949785;29;20136;-80
2022/08/23 02:51:12;;;;;;;7.88;5.50;;;;;;;15.19;nan;101032.81;4941411;29;20130;-79
2022/08/23 02:53:39;;;;;;;7.38;5.90;;;;;;;15.23;nan;101035.41;4932932;29;20119;-80
2022/08/23 02:56:08;;;;;;;7.07;6.32;;;;;;;15.23;nan;101040.72;4928584;29;20114;-80
2022/08/23 02:58:47;;;;;;;7.43;5.97;;;;;;;15.19;nan;101046.13;4947310;29;20107;-79
2022/08/23 03:01:22;;;;;;;6.03;5.43;;;;;;;15.18;nan;101039.06;4944602;29;20126;-80
2022/08/23 03:03:49;;;;;;;8.15;5.93;;;;;;;15.17;nan;101039.13;4922001;29;20454;-80
2022/08/23 03:06:16;;;;;;;6.03;5.43;;;;;;;15.14;nan;101045.44;4911382;29;20128;-80
2022/08/23 03:08:53;;;;;;;6.15;5.55;;;;;;;15.16;nan;101046.25;4930708;29;20116;-79
2022/08/23 03:11:22;;;;;;;8.40;6.13;;;;;;;15.15;nan;101046.31;4943643;29;20111;-79
2022/08/23 03:13:50;;;;;;;6.75;6.05;;;;;;;15.15;nan;101043.63;4944573;29;20115;-79
2022/08/23 03:16:17;;;;;;;7.55;5.90;;;;;;;15.17;nan;101041.78;4925655;29;20131;-79
2022/08/23 03:18:46;;;;;;;7.10;6.13;;;;;;;15.16;nan;101048.03;4943245;29;20557;-79
2022/08/23 03:21:15;;;;;;;7.65;6.03;;;;;;;15.14;nan;101047.22;4926667;29;20088;-79
2022/08/23 03:23:42;;;;;;;6.57;5.82;;;;;;;15.13;nan;101050.78;4929554;29;20577;-80
2022/08/23 03:26:11;;;;;;;6.95;6.18;;;;;;;15.13;nan;101046.34;4940931;29;20148;-78
2022/08/23 03:28:39;;;;;;;6.18;5.50;;;;;;;15.10;nan;101045.56;4925073;29;20135;-79
2022/08/23 03:31:07;;;;;;;8.52;5.72;;;;;;;15.10;nan;101045.56;4943213;29;20096;-79
2022/08/23 03:33:35;;;;;;;8.75;6.00;;;;;;;15.21;nan;101048.72;4937715;29;20204;-79
2022/08/23 03:36:05;;;;;;;10.80;6.65;;;;;;;15.19;nan;101058.56;4940553;29;20123;-78
2022/08/23 03:38:33;;;;;;;10.30;6.60;;;;;;;15.19;nan;101047.91;4945699;29;20127;-80
2022/08/23 03:41:01;;;;;;;8.25;6.10;;;;;;;15.19;nan;101046.13;4935377;29;20267;-78
2022/08/23 03:43:28;;;;;;;9.10;6.38;;;;;;;15.19;nan;101053.25;4941255;29;20095;-79
2022/08/23 03:45:55;;;;;;;7.40;6.20;;;;;;;15.17;nan;101058.63;4942151;29;20134;-79
2022/08/23 03:48:22;;;;;;;7.93;6.18;;;;;;;15.15;nan;101060.47;4944671;29;20119;-79
2022/08/23 03:50:49;;;;;;;9.15;7.18;;;;;;;15.16;nan;101062.22;4941743;29;20138;-78
2022/08/23 03:53:16;;;;;;;7.93;6.85;;;;;;;15.18;nan;101067.47;4945421;29;20091;-78
2022/08/23 03:55:43;;;;;;;8.98;6.18;;;;;;;15.17;nan;101068.41;4932169;29;20103;-79
2022/08/23 03:58:10;;;;;;;7.38;6.07;;;;;;;15.16;nan;101072.84;4940517;29;20486;-78
2022/08/23 04:00:37;;;;;;;7.10;6.22;;;;;;;15.18;nan;101071.00;4937649;29;20131;-79
2022/08/23 04:03:05;;;;;;;8.07;6.15;;;;;;;15.18;nan;101075.47;4940166;29;20087;-78
2022/08/23 04:05:31;;;;;;;6.75;6.05;;;;;;;15.17;nan;101071.06;4923165;29;20115;-79
2022/08/23 04:08:17;;;;;;;7.60;6.35;;;;;;;15.18;nan;101075.47;4939037;29;20099;-79
2022/08/23 04:10:59;;;;;;;11.25;7.10;;;;;;;15.18;nan;101073.66;4909335;29;20130;-78
2022/08/23 04:13:27;;;;;;;7.60;5.95;;;;;;;15.18;nan;101076.34;4941296;29;20635;-78
2022/08/23 04:15:55;;;;;;;7.57;6.10;;;;;;;15.18;nan;101073.66;4939532;29;20146;-78
2022/08/23 04:18:23;;;;;;;8.38;7.57;;;;;;;15.20;nan;101068.28;4938799;29;20100;-79
2022/08/23 04:20:51;;;;;;;7.95;6.25;;;;;;;15.23;nan;101067.34;4914496;29;20119;-77
2022/08/23 04:23:28;;;;;;;9.50;7.13;;;;;;;15.23;nan;101070.00;4925160;29;20096;-77
2022/08/23 04:25:58;;;;;;;8.10;6.75;;;;;;;15.23;nan;101072.66;4942226;29;20768;-78
2022/08/23 04:28:29;;;;;;;7.53;6.53;;;;;;;15.25;nan;101081.47;4940091;29;20112;-78
2022/08/23 04:31:03;;;;;;;7.15;6.18;;;;;;;15.32;nan;101088.31;4937874;29;20433;-77
2022/08/23 04:33:34;;;;;;;7.22;6.50;;;;;;;15.32;nan;101091.00;4934434;29;20040;-77
2022/08/23 04:36:09;;;;;;;9.30;5.80;;;;;;;15.33;nan;101087.41;4936421;29;20107;-77
2022/08/23 04:38:39;;;;;;;8.23;6.15;;;;;;;15.35;nan;101091.75;4935967;29;20127;-78
2022/08/23 04:43:55;;;;;;;6.75;5.72;;;;;;;15.49;nan;101088.63;4932247;29;20624;-78
2022/08/23 04:46:22;;;;;;;8.52;6.90;;;;;;;15.49;nan;101097.50;4938163;29;20158;-78
2022/08/23 04:48:49;;;;;;;6.88;6.18;;;;;;;15.51;nan;101099.22;4926336;29;20466;-78
2022/08/23 04:51:16;;;;;;;6.70;5.90;;;;;;;15.51;nan;101093.91;4940397;29;20092;-78
2022/08/23 04:53:43;;;;;;;7.68;6.13;;;;;;;15.52;nan;101088.50;4905831;29;1013586;-78
2022/08/23 04:56:10;;;;;;;7.55;6.75;;;;;;;15.50;nan;101090.38;4934188;29;20119;-79
2022/08/23 04:58:37;;;;;;;7.45;6.40;;;;;;;15.48;nan;101094.88;4938594;29;20453;-77
2022/08/23 05:01:06;;;;;;;6.38;5.78;;;;;;;15.58;nan;101087.44;4927627;29;20096;-78
2022/08/23 05:03:34;;;;;;;6.90;6.03;;;;;;;15.58;nan;101090.09;4940314;29;20080;-79
2022/08/23 05:06:03;;;;;;;7.57;6.10;;;;;;;15.61;nan;101096.22;4940351;29;20107;-77
2022/08/23 05:08:30;;;;;;;8.82;6.07;;;;;;;15.63;nan;101094.38;4942764;29;20115;-78
2022/08/23 05:11:03;;;;;;;6.40;5.80;;;;;;;15.62;nan;101092.63;4940150;29;20103;-78
2022/08/23 05:13:30;;;;;;;5.93;5.43;;;;;;;15.65;nan;101100.53;4940996;29;20120;-78
2022/08/23 05:15:57;;;;;;;8.73;5.47;;;;;;;15.72;nan;101107.41;4939768;29;20146;-79
2022/08/23 05:18:24;;;;;;;6.97;5.75;;;;;;;15.75;nan;101109.94;4935390;29;20091;-78
2022/08/23 05:20:52;;;;;;;7.03;5.43;;;;;;;15.80;nan;101108.91;4942009;29;20171;-78
2022/08/23 05:23:19;;;;;;;6.65;5.80;;;;;;;15.84;nan;101107.88;4939446;29;20120;-78
2022/08/23 05:25:48;;;;;;;8.13;5.63;;;;;;;15.89;nan;101106.81;4939394;29;20118;-79
2022/08/23 05:28:23;;;;;;;7.03;5.47;;;;;;;15.98;nan;101110.94;4942994;29;20118;-77
2022/08/23 05:31:02;;;;;;;6.05;5.40;;;;;;;16.05;nan;101109.78;4921736;29;20163;-80
2022/08/23 05:33:30;;;;;;;6.90;5.82;;;;;;;16.13;nan;101114.81;4930084;29;20042;-80
2022/08/23 05:35:57;;;;;;;7.57;5.95;;;;;;;16.21;nan;101113.63;4923451;29;20799;-80
2022/08/23 05:38:25;;;;;;;8.20;6.13;;;;;;;16.32;nan;101127.44;4933971;29;20040;-80
2022/08/23 05:40:53;;;;;;;8.48;7.05;;;;;;;16.39;nan;101135.19;4932362;29;20043;-80
2022/08/23 05:43:21;;;;;;;6.95;5.00;;;;;;;16.49;nan;101136.63;4929727;29;20040;-79
2022/08/23 05:45:58;;;;;;;5.78;5.10;;;;;;;16.62;nan;101135.22;4930636;29;20924;-79
2022/08/23 05:48:25;;;;;;;7.35;4.88;;;;;;;16.70;nan;101130.50;4931598;29;20047;-79
2022/08/23 05:50:52;;;;;;;6.18;4.60;;;;;;;16.77;nan;101132.00;4931318;29;20040;-79
2022/08/23 05:53:19;;;;;;;5.93;4.82;;;;;;;16.86;nan;101123.63;4933283;29;20040;-80
2022/08/23 05:55:47;;;;;;;8.63;5.38;;;;;;;16.99;nan;101136.53;4929914;29;20048;-79
2022/08/23 05:58:14;;;;;;;6.22;4.72;;;;;;;17.03;nan;101136.31;4922739;29;20032;-81
2022/08/23 06:00:41;;;;;;;34.00;8.60;;;;;;;17.19;nan;101131.25;4930579;29;20046;-79
2022/08/23 06:03:09;;;;;;;9.57;5.00;;;;;;;17.21;nan;101136.50;4926432;29;20047;-80
2022/08/23 06:05:40;;;;;;;4.65;4.25;;;;;;;17.30;nan;101142.34;4929639;29;20035;-79
2022/08/23 06:08:07;;;;;;;6.40;4.20;;;;;;;17.37;nan;101140.31;4927211;29;20062;-79
2022/08/23 06:10:36;;;;;;;6.03;4.68;;;;;;;17.44;nan;101148.00;4899307;29;20528;-80
2022/08/23 06:13:07;;;;;;;4.10;3.70;;;;;;;17.56;nan;101146.63;4921592;29;20066;-79
2022/08/23 06:15:34;;;;;;;4.93;3.95;;;;;;;17.67;nan;101146.19;4927806;29;20035;-80
2022/08/23 06:18:01;;;;;;;4.72;3.50;;;;;;;17.71;nan;101143.34;4931869;29;20155;-80
2022/08/23 06:20:28;;;;;;;6.35;4.47;;;;;;;17.77;nan;101144.88;4931445;29;20497;-80
2022/08/23 06:22:55;;;;;;;5.68;4.07;;;;;;;17.81;nan;101149.16;4931942;29;20039;-79
2022/08/23 06:25:22;;;;;;;9.48;3.75;;;;;;;17.85;nan;101148.09;4930792;29;20038;-80
2022/08/23 06:27:49;;;;;;;4.18;3.28;;;;;;;17.93;nan;101150.44;4931380;29;20047;-80
2022/08/23 06:30:16;;;;;;;4.63;3.45;;;;;;;17.99;nan;101148.38;4905411;29;20506;-80
2022/08/23 06:32:43;;;;;;;5.07;3.70;;;;;;;18.05;nan;101154.38;4911642;29;20446;-80
2022/08/23 06:35:11;;;;;;;4.55;4.05;;;;;;;18.11;nan;101154.13;4927897;29;20503;-80
2022/08/23 06:38:01;;;;;;;5.82;3.67;;;;;;;18.17;nan;101152.06;4933145;29;20042;-81
2022/08/23 06:40:28;;;;;;;3.83;3.47;;;;;;;18.26;nan;101150.78;4907589;29;20046;-80
2022/08/23 06:42:57;;;;;;;15.30;4.43;;;;;;;18.33;nan;101149.56;4931403;29;20046;-79
2022/08/23 06:45:24;;;;;;;13.82;5.20;;;;;;;18.34;nan;101145.97;4930474;29;20066;-79
2022/08/23 06:47:59;;;;;;;7.18;3.80;;;;;;;18.38;nan;101144.88;4935607;29;20412;-79
2022/08/23 06:50:26;;;;;;;3.72;3.33;;;;;;;18.48;nan;101146.19;4918981;29;20044;-79
2022/08/23 06:52:58;;;;;;;4.82;3.35;;;;;;;18.57;nan;101148.44;4919935;29;20043;-78
2022/08/23 06:55:25;;;;;;;4.50;2.90;;;;;;;18.65;nan;101144.53;4926461;29;20451;-79
2022/08/23 06:57:52;;;;;;;5.47;3.10;;;;;;;18.70;nan;101143.44;4934465;29;20053;-80
2022/08/23 07:00:19;;;;;;;5.13;3.92;;;;;;;18.86;nan;101146.25;4933074;29;20114;-79
2022/08/23 07:02:48;;;;;;;5.32;2.92;;;;;;;18.91;nan;101146.91;4932649;29;20052;-79
2022/08/23 07:05:24;;;;;;;4.78;3.45;;;;;;;19.07;nan;101144.38;4933601;29;20035;-80
2022/08/23 07:07:51;;;;;;;4.30;3.00;;;;;;;19.17;nan;101150.13;4930302;29;20054;-80
2022/08/23 07:10:18;;;;;;;6.85;3.83;;;;;;;19.20;nan;101144.66;4930515;29;20405;-79
2022/08/23 07:12:45;;;;;;;5.20;2.42;;;;;;;19.33;nan;101149.31;4930084;29;20515;-80
2022/08/23 07:15:12;;;;;;;3.97;3.28;;;;;;;19.45;nan;101144.31;4936782;29;20036;-79
2022/08/23 07:17:38;;;;;;;7.60;2.95;;;;;;;19.44;nan;101153.31;4932834;29;20508;-80
2022/08/23 07:20:06;;;;;;;5.97;3.20;;;;;;;19.49;nan;101149.44;4924212;29;20051;-79
2022/08/23 07:22:33;;;;;;;4.57;3.05;;;;;;;19.56;nan;101153.56;4916435;29;20035;-80
2022/08/23 07:25:00;;;;;;;5.05;3.38;;;;;;;19.61;nan;101156.03;4934476;29;20048;-79
2022/08/23 07:27:26;;;;;;;5.82;3.53;;;;;;;19.68;nan;101150.31;4916159;29;20615;-79
2022/08/23 07:29:53;;;;;;;7.85;3.05;;;;;;;19.80;nan;101151.47;4935155;29;20058;-80
2022/08/23 07:32:20;;;;;;;5.38;3.10;;;;;;;19.87;nan;101154.72;4932321;29;20050;-79
2022/08/23 07:34:47;;;;;;;4.90;3.55;;;;;;;20.05;nan;101158.25;4933764;29;20054;-79
2022/08/23 07:37:16;;;;;;;5.15;3.40;;;;;;;20.15;nan;101149.66;4933316;29;20043;-79
2022/08/23 07:39:43;;;;;;;4.55;2.80;;;;;;;20.33;nan;101152.31;4932926;29;20035;-80
2022/08/23 07:42:10;;;;;;;6.38;3.45;;;;;;;20.48;nan;101155.06;4924742;29;20061;-79
2022/08/23 07:44:50;;;;;;;3.88;2.83;;;;;;;20.47;nan;101153.34;4924456;29;20394;-80
2022/08/23 07:47:18;;;;;;;4.45;2.92;;;;;;;20.57;nan;101161.75;4916822;29;20040;-79
2022/08/23 07:49:45;;;;;;;4.00;2.65;;;;;;;20.63;nan;101152.53;4926068;29;20498;-79
2022/08/23 07:52:12;;;;;;;5.28;2.80;;;;;;;20.75;nan;101155.38;4932439;29;20070;-79
2022/08/23 07:54:39;;;;;;;6.15;2.80;;;;;;;20.79;nan;101153.41;4934392;29;20042;-80
2022/08/23 07:57:08;;;;;;;3.80;2.63;;;;;;;20.92;nan;101154.44;4932357;29;20031;-79
2022/08/23 07:59:35;;;;;;;4.63;2.72;;;;;;;20.98;nan;101153.25;4932789;29;20040;-80
2022/08/23 08:02:02;;;;;;;5.75;2.90;;;;;;;21.12;nan;101153.34;4933134;29;20036;-79
2022/08/23 08:04:29;;;;;;;6.63;3.30;;;;;;;21.28;nan;101154.25;4917893;29;20078;-79
2022/08/23 08:06:57;;;;;;;3.10;2.53;;;;;;;21.42;nan;101156.13;4933302;29;20054;-80
2022/08/23 08:09:43;;;;;;;6.40;3.03;;;;;;;21.43;nan;101159.69;4927837;29;20044;-79
2022/08/23 08:12:11;;;;;;;4.25;3.08;;;;;;;21.47;nan;101166.63;4932503;29;20043;-80
2022/08/23 08:14:39;;;;;;;3.33;2.58;;;;;;;21.51;nan;101165.47;4933508;29;20035;-81
2022/08/23 08:17:06;;;;;;;3.30;2.95;;;;;;;21.54;nan;101162.63;4929388;29;20844;-79
2022/08/23 08:19:33;;;;;;;4.70;2.78;;;;;;;21.49;nan;101168.25;4918213;29;20517;-79
2022/08/23 08:22:00;;;;;;;5.82;3.03;;;;;;;21.60;nan;101173.00;4913049;29;20046;-79
2022/08/23 08:24:27;;;;;;;5.20;2.88;;;;;;;21.68;nan;101184.19;4932254;29;20517;-80
2022/08/23 08:26:54;;;;;;;3.92;2.95;;;;;;;21.75;nan;101174.81;4932240;29;20047;-80
2022/08/23 08:29:21;;;;;;;3.88;2.55;;;;;;;21.85;nan;101180.50;4934277;29;20404;-81
2022/08/23 08:31:49;;;;;;;4.35;2.70;;;;;;;21.84;nan;101179.63;4932210;29;20040;-80
2022/08/23 08:34:20;;;;;;;5.50;2.70;;;;;;;;;;4931613;29;20042;-79
2022/08/23 08:36:55;;;;;;;31.13;6.00;;;;;;;21.84;nan;101178.78;4931050;29;20535;-80
2022/08/23 08:39:28;;;;;;;4.10;2.60;;;;;;;21.99;nan;101172.47;4918674;29;20053;-79
2022/08/23 08:42:11;;;;;;;5.93;2.92;;;;;;;22.25;nan;101168.25;4942532;29;20093;-80
2022/08/23 08:44:44;;;;;;;4.30;2.60;;;;;;;22.42;nan;101165.38;4932954;29;20043;-80
2022/08/23 08:47:31;;;;;;;3.72;2.50;;;;;;;22.56;nan;101177.13;4933569;29;20397;-80
2022/08/23 08:50:04;;;;;;;7.88;3.63;;;;;;;22.63;nan;101173.97;4932120;29;20401;-80
2022/08/23 08:52:35;;;;;;;7.80;2.63;;;;;;;22.72;nan;101169.81;4931856;29;20039;-81
2022/08/23 08:55:10;;;;;;;3.55;2.67;;;;;;;22.77;nan;101165.00;4932455;29;20299;-79
2022/08/23 08:57:39;;;;;;;3.95;2.33;;;;;;;22.77;nan;101171.25;4912446;29;20040;-80
2022/08/23 09:00:31;;;;;;;4.32;2.67;;;;;;;22.79;nan;101176.56;4913351;29;20061;-80
2022/08/23 09:02:59;;;;;;;4.35;2.97;;;;;;;22.89;nan;101166.97;4930522;29;20035;-78
2022/08/23 09:05:30;;;;;;;3.75;2.33;;;;;;;23.02;nan;101167.88;4929389;29;20040;-79
2022/08/23 09:08:17;;;;;;;3.53;1.92;;;;;;;23.11;nan;101165.56;4932423;29;20047;-79
2022/08/23 09:11:21;;;;;;;3.55;2.30;;;;;;;23.16;nan;101167.00;4930857;29;20050;-79
2022/08/23 09:14:04;;;;;;;4.43;2.40;;;;;;;23.33;nan;101167.75;4931812;29;20043;-80
2022/08/23 09:16:56;;;;;;;4.80;2.38;;;;;;;23.55;nan;101171.63;4930649;29;20043;-78
2022/08/23 09:19:24;;;;;;;6.43;2.70;;;;;;;23.67;nan;101171.78;4915300;29;20046;-80
2022/08/23 09:21:57;;;;;;;4.10;2.40;;;;;;;23.73;nan;101171.38;4928918;29;20046;-80
2022/08/23 09:24:25;;;;;;;2.88;2.08;;;;;;;24.00;nan;101174.03;4933658;29;20031;-80
2022/08/23 09:26:52;;;;;;;5.18;2.20;;;;;;;24.33;nan;101165.47;4915651;29;20039;-80
2022/08/23 09:29:25;;;;;;;2.97;1.90;;;;;;;24.66;nan;101163.09;4899497;29;20048;-80
2022/08/23 09:31:57;;;;;;;3.60;2.17;;;;;;;24.98;nan;101165.31;4897229;29;20765;-80
2022/08/23 09:34:33;;;;;;;5.00;2.60;;;;;;;25.06;nan;101167.50;4900818;29;20044;-80
2022/08/23 09:37:22;;;;;;;2.63;2.20;;;;;;;24.90;nan;101163.16;4931850;29;20044;-80
2022/08/23 09:39:52;;;;;;;3.28;2.40;;;;;;;24.82;nan;101173.66;4932719;29;20040;-80
2022/08/23 09:42:36;;;;;;;2.22;1.88;;;;;;;24.63;nan;101174.09;4929560;29;20050;-79
2022/08/23 09:45:23;;;;;;;4.60;2.92;;;;;;;24.25;nan;101157.00;4930679;29;20497;-79
2022/08/23 09:47:50;;;;;;;4.22;2.80;;;;;;;24.01;nan;101157.72;4928547;29;20050;-78
2022/08/23 09:50:27;;;;;;;4.05;2.30;;;;;;;24.24;nan;101161.53;4926988;29;20050;-80
2022/08/23 09:52:58;;;;;;;5.13;2.60;;;;;;;24.38;nan;101158.78;4929212;29;20044;-79
2022/08/23 09:55:52;;;;;;;4.72;2.38;;;;;;;24.42;nan;101154.88;4930174;29;20036;-79
2022/08/23 09:58:39;;;;;;;5.13;2.85;;;;;;;24.39;nan;101152.41;4928862;29;20063;-78
2022/08/23 10:01:15;;;;;;;4.38;2.40;;;;;;;24.86;nan;101150.81;4913637;29;20039;-79
2022/08/23 10:03:46;;;;;;;4.90;2.30;;;;;;;25.29;nan;101146.84;4932631;29;20621;-79
2022/08/23 10:06:28;;;;;;;3.95;2.17;;;;;;;25.71;nan;101146.34;4927161;29;20055;-79
2022/08/23 10:08:59;;;;;;;4.05;2.17;;;;;;;25.55;nan;101145.75;4931112;29;20503;-78
2022/08/23 10:11:28;;;;;;;3.60;2.40;;;;;;;25.81;nan;101144.69;4925356;29;20054;-79
2022/08/23 10:13:55;;;;;;;3.30;2.00;;;;;;;25.54;nan;101134.06;4930650;29;20040;-80
2022/08/23 10:16:28;;;;;;;3.58;2.05;;;;;;;25.32;nan;101138.53;4925465;29;20040;-80
2022/08/23 10:19:09;;;;;;;2.73;2.23;;;;;;;25.26;nan;101154.22;4934220;29;20095;-78
2022/08/23 10:22:18;;;;;;;3.55;2.05;;;;;;;25.59;nan;101158.09;4931011;29;20088;-80
2022/08/23 10:25:13;;;;;;;3.88;2.30;;;;;;;25.61;nan;101150.69;4938294;29;20114;-78
2022/08/23 10:30:47;;;;;;;3.20;2.25;;;;;;;25.15;nan;101158.69;4931644;29;20087;-79
2022/08/23 10:33:41;;;;;;;3.30;2.42;;;;;;;25.17;nan;101152.19;4932063;29;20135;-78
2022/08/23 10:36:22;;;;;;;7.10;2.65;;;;;;;24.95;nan;101147.44;4935214;29;20092;-79
2022/08/23 10:38:57;;;;;;;3.50;2.28;;;;;;;24.97;nan;101153.63;4948564;29;20110;-78
2022/08/23 10:41:27;;;;;;;4.03;2.25;;;;;;;24.95;nan;101149.28;4946009;29;20092;-80
2022/08/23 10:44:08;;;;;;;2.50;1.90;;;;;;;25.05;nan;101150.38;4950283;29;20074;-78
2022/08/23 10:46:40;;;;;;;2.20;1.80;;;;;;;25.33;nan;101151.06;4946285;29;20108;-80
2022/08/23 10:49:10;;;;;;;2.78;1.85;;;;;;;25.61;nan;101158.81;4942219;29;20103;-78
2022/08/23 10:51:43;;;;;;;3.42;1.85;;;;;;;25.59;nan;101149.97;4928803;29;20091;-79
2022/08/23 10:54:34;;;;;;;3.00;2.00;;;;;;;25.58;nan;101152.78;4942582;29;20123;-79
2022/08/23 10:57:02;;;;;;;2.22;1.92;;;;;;;25.75;nan;101147.00;4947295;29;20107;-79
2022/08/23 10:59:29;;;;;;;4.35;2.17;;;;;;;25.91;nan;101147.53;4933689;29;20119;-79
2022/08/23 11:02:18;;;;;;;3.13;1.77;;;;;;;26.11;nan;101154.13;4948277;29;20078;-78
2022/08/23 11:05:02;;;;;;;3.17;2.00;;;;;;;26.20;nan;101147.13;4945368;29;20138;-79
2022/08/23 11:07:36;;;;;;;2.88;2.03;;;;;;;26.08;nan;101146.25;4944225;29;20095;-80
2022/08/23 11:10:02;;;;;;;;;;;;;;;26.27;nan;101153.78;4952656;29;20090;-79
2022/08/23 11:12:33;;;;;;;3.47;2.10;;;;;;;26.27;nan;101146.50;4953501;29;20000;-78
2022/08/23 11:15:06;;;;;;;2.78;1.80;;;;;;;26.04;nan;101145.59;4946310;29;20113;-79
2022/08/23 11:17:48;;;;;;;2.05;1.60;;;;;;;26.22;nan;101151.41;4936672;29;20078;-80
2022/08/23 11:20:49;;;;;;;3.22;2.05;;;;;;;26.01;nan;101158.53;4944820;29;20051;-80
2022/08/23 11:23:34;;;;;;;3.33;1.83;;;;;;;25.79;nan;101157.44;4945578;29;20062;-79
2022/08/23 11:26:04;;;;;;;12.13;3.22;;;;;;;25.53;nan;101155.84;4946731;29;20079;-79
2022/08/23 11:28:43;;;;;;;8.18;2.65;;;;;;;25.68;nan;101153.81;4945627;29;20070;-79
2022/08/23 11:31:10;;;;;;;4.78;2.10;;;;;;;25.25;nan;101157.91;4928402;29;20118;-79
2022/08/23 11:33:45;;;;;;;3.47;1.98;;;;;;;25.38;nan;101151.56;4948892;29;20095;-79
2022/08/23 11:36:20;;;;;;;2.55;1.80;;;;;;;25.75;nan;101150.56;4940761;29;20119;-79
2022/08/23 11:38:47;;;;;;;3.45;1.75;;;;;;;25.90;nan;101145.81;4948415;29;20101;-78
2022/08/23 11:41:24;;;;;;;7.18;2.35;;;;;;;26.15;nan;101138.47;4948978;29;20123;-79
2022/08/23 11:43:54;;;;;;;3.88;1.90;;;;;;;26.48;nan;101152.09;4943678;29;20139;-79
2022/08/23 11:46:24;;;;;;;2.08;1.80;;;;;;;26.91;nan;101148.69;4946552;29;20096;-79
2022/08/23 11:48:58;;;;;;;2.70;2.20;;;;;;;27.18;nan;101156.44;4950963;29;20072;-79
2022/08/23 11:51:31;;;;;;;;;;;;;;;27.01;nan;101165.06;4946987;29;20565;-79
2022/08/23 11:54:26;;;;;;;2.30;1.90;;;;;;;26.65;nan;101157.06;4950308;29;19962;-80
2022/08/23 11:57:18;;;;;;;2.38;1.67;;;;;;;26.66;nan;101157.94;4918580;29;20168;-79
2022/08/23 11:59:51;;;;;;;4.85;1.40;;;;;;;26.85;nan;101162.72;4931003;29;20067;-79
2022/08/23 12:02:30;;;;;;;2.75;1.83;;;;;;;26.83;nan;101159.28;4930760;29;20068;-79
2022/08/23 12:05:19;;;;;;;4.13;1.52;;;;;;;26.68;nan;101161.38;4931150;29;20067;-80
2022/08/23 12:08:06;;;;;;;5.85;1.88;;;;;;;27.17;nan;101155.56;4921077;29;20100;-79
2022/08/23 12:10:41;;;;;;;3.75;1.63;;;;;;;27.59;nan;101154.84;4943636;29;20092;-78
2022/08/23 12:13:21;;;;;;;2.60;1.70;;;;;;;27.33;nan;101157.03;4949015;29;20059;-79
2022/08/23 12:16:06;;;;;;;3.38;1.70;;;;;;;27.58;nan;101153.09;4948839;29;20071;-79
2022/08/23 12:18:47;;;;;;;3.80;1.85;;;;;;;27.61;nan;101150.13;4946145;29;20063;-79